Time;durP1;ratioP1;P1;durP2;ratioP2;P2;SDS_P1;SDS_P2;PMS_P1;PMS_P2;Temp;Humidity;BMP_temperature;BMP_pressure;BME280_temperature;BME280_humidity;BME280_pressure;Samples;Min_cycle;Max_cycle;Signal;HPM_P1;HPM_P2
2022/10/29 00:00:28;;;;;;;22.67;11.00;;;12.60;99.90;;;;;;6372066;22;20029;-80
2022/10/29 00:02:53;;;;;;;29.52;10.05;;;12.60;99.90;;;;;;6371901;22;20018;-80
2022/10/29 00:05:19;;;;;;;27.50;10.40;;;12.50;99.90;;;;;;6344080;22;20010;-80
2022/10/29 00:07:45;;;;;;;21.45;11.23;;;12.40;99.90;;;;;;6344211;22;20018;-80
2022/10/29 00:10:10;;;;;;;20.77;10.52;;;12.50;99.90;;;;;;6344156;22;20014;-81
2022/10/29 00:12:36;;;;;;;21.55;10.70;;;12.50;99.90;;;;;;6372320;22;20342;-80
2022/10/29 00:15:03;;;;;;;27.15;10.45;;;12.50;99.90;;;;;;6372226;22;20014;-81
2022/10/29 00:17:28;;;;;;;21.15;10.25;;;12.40;99.90;;;;;;6371967;22;20477;-80
2022/10/29 00:19:54;;;;;;;23.92;11.40;;;12.40;99.90;;;;;;6371798;22;20089;-80
2022/10/29 00:22:19;;;;;;;24.83;11.27;;;12.40;99.90;;;;;;6372089;22;20498;-81
2022/10/29 00:24:45;;;;;;;31.23;12.82;;;12.40;99.90;;;;;;6372102;22;20046;-80
2022/10/29 00:27:11;;;;;;;32.50;11.93;;;12.40;99.90;;;;;;6343853;22;20042;-81
2022/10/29 00:29:36;;;;;;;23.52;10.32;;;12.40;99.90;;;;;;6343929;22;20010;-81
2022/10/29 00:32:02;;;;;;;33.92;11.02;;;12.40;99.90;;;;;;6372091;22;20017;-80
2022/10/29 00:34:28;;;;;;;34.17;11.82;;;12.30;99.90;;;;;;6343864;22;20022;-80
2022/10/29 00:36:54;;;;;;;26.83;10.63;;;12.30;99.90;;;;;;6371729;22;20323;-80
2022/10/29 00:39:19;;;;;;;24.45;10.43;;;12.30;99.90;;;;;;6371684;22;20464;-80
2022/10/29 00:41:45;;;;;;;18.52;9.75;;;12.20;99.90;;;;;;6372003;22;20021;-80
2022/10/29 00:44:13;;;;;;;23.17;9.23;;;12.20;99.90;;;;;;6371938;22;20130;-80
2022/10/29 00:46:46;;;;;;;21.70;10.48;;;12.10;99.90;;;;;;6343729;22;20063;-80
2022/10/29 00:49:13;;;;;;;27.35;9.73;;;12.00;99.90;;;;;;6372005;22;20015;-80
2022/10/29 00:51:39;;;;;;;16.48;8.05;;;12.00;99.90;;;;;;6371538;22;20014;-80
2022/10/29 00:54:08;;;;;;;22.27;10.18;;;12.00;99.90;;;;;;6371537;22;20089;-80
2022/10/29 00:56:58;;;;;;;25.65;10.77;;;12.00;99.90;;;;;;6371836;22;20085;-80
2022/10/29 00:59:24;;;;;;;36.10;11.40;;;12.00;99.90;;;;;;6371877;22;20089;-80
2022/10/29 01:01:49;;;;;;;28.92;11.60;;;12.20;99.90;;;;;;6371617;22;20018;-80
2022/10/29 01:04:17;;;;;;;20.33;11.15;;;12.10;99.90;;;;;;6343569;22;20398;-80
2022/10/29 01:06:43;;;;;;;28.83;11.95;;;12.20;99.90;;;;;;6371735;22;20013;-80
2022/10/29 01:09:09;;;;;;;33.28;11.50;;;12.20;99.90;;;;;;6371429;22;20026;-80
2022/10/29 01:11:55;;;;;;;95.00;13.70;;;12.10;99.90;;;;;;6371657;22;20006;-80
2022/10/29 01:15:25;;;;;;;20.17;10.68;;;12.20;99.90;;;;;;6371800;22;20021;-80
2022/10/29 01:17:56;;;;;;;23.60;10.27;;;12.20;99.90;;;;;;6162332;23;20057;-80
2022/10/29 01:20:28;;;;;;;20.30;9.80;;;12.20;99.90;;;;;;6322720;22;20014;-80
2022/10/29 01:23:09;;;;;;;49.03;12.70;;;12.20;99.90;;;;;;6344144;22;20018;-80
2022/10/29 01:26:02;;;;;;;48.47;11.98;;;12.20;99.90;;;;;;6371358;22;20401;-80
2022/10/29 01:29:16;;;;;;;24.52;10.85;;;12.20;99.90;;;;;;6343398;22;20018;-80
2022/10/29 01:31:50;;;;;;;32.97;10.68;;;12.20;99.90;;;;;;6371667;22;20014;-80
2022/10/29 01:34:36;;;;;;;20.67;10.13;;;12.30;99.90;;;;;;6371602;22;20022;-80
2022/10/29 01:37:14;;;;;;;16.27;9.35;;;12.30;99.90;;;;;;6343462;22;20044;-80
2022/10/29 01:39:45;;;;;;;15.63;9.18;;;12.30;99.90;;;;;;6343391;22;20026;-80
2022/10/29 01:42:34;;;;;;;29.00;9.98;;;12.20;99.90;;;;;;6343225;22;20014;-80
2022/10/29 01:45:40;;;;;;;25.15;10.02;;;12.20;99.90;;;;;;6343328;22;20022;-80
2022/10/29 01:48:12;;;;;;;23.20;10.15;;;12.30;99.90;;;;;;6316328;22;20021;-80
2022/10/29 01:50:42;;;;;;;19.17;9.07;;;12.30;99.90;;;;;;6371038;22;20465;-80
2022/10/29 01:53:08;;;;;;;30.70;11.70;;;12.30;99.90;;;;;;6343026;22;20093;-80
2022/10/29 01:55:36;;;;;;;34.47;10.93;;;12.30;99.90;;;;;;6371363;22;20050;-80
2022/10/29 01:58:04;;;;;;;28.33;10.20;;;12.40;99.90;;;;;;6371273;22;20018;-80
2022/10/29 02:00:58;;;;;;;56.83;11.75;;;12.40;99.90;;;;;;6371266;22;20014;-80
2022/10/29 02:03:33;;;;;;;19.70;10.02;;;12.30;99.90;;;;;;6369984;22;20040;-80
2022/10/29 02:06:19;;;;;;;54.78;10.82;;;12.40;99.90;;;;;;6342789;22;20093;-80
2022/10/29 02:09:03;;;;;;;50.42;10.27;;;12.40;99.90;;;;;;6371185;22;20093;-81
2022/10/29 02:11:49;;;;;;;45.50;10.77;;;12.40;99.90;;;;;;6371270;22;20007;-81
2022/10/29 02:14:34;;;;;;;28.38;8.65;;;12.30;99.90;;;;;;6343120;22;20021;-81
2022/10/29 02:17:01;;;;;;;28.75;8.80;;;12.30;99.90;;;;;;6343007;22;20505;-81
2022/10/29 02:19:34;;;;;;;17.70;8.93;;;12.30;99.90;;;;;;6371137;22;20052;-80
2022/10/29 02:22:00;;;;;;;33.22;9.15;;;12.20;99.90;;;;;;6370939;22;20049;-80
2022/10/29 02:24:26;;;;;;;66.53;11.27;;;12.20;99.90;;;;;;6342952;22;20025;-80
2022/10/29 02:26:52;;;;;;;69.78;10.07;;;12.10;99.90;;;;;;6343474;22;20014;-81
2022/10/29 02:29:18;;;;;;;30.52;9.55;;;12.10;99.90;;;;;;6342866;22;20019;-80
2022/10/29 02:31:43;;;;;;;24.33;9.77;;;12.20;99.90;;;;;;6370780;22;20022;-80
2022/10/29 02:34:09;;;;;;;23.90;8.93;;;12.10;99.90;;;;;;6371054;22;20025;-80
2022/10/29 02:36:35;;;;;;;75.30;11.27;;;12.10;99.90;;;;;;6342958;22;20059;-81
2022/10/29 02:39:00;;;;;;;21.30;8.40;;;12.10;99.90;;;;;;6343356;22;20055;-81
2022/10/29 02:41:26;;;;;;;25.50;9.45;;;12.10;99.90;;;;;;6371003;22;20010;-81
2022/10/29 02:43:52;;;;;;;25.33;8.43;;;12.10;99.90;;;;;;6342794;22;20017;-80
2022/10/29 02:46:20;;;;;;;45.75;9.65;;;12.10;99.90;;;;;;6370954;22;20014;-81
2022/10/29 02:48:46;;;;;;;51.28;9.15;;;12.10;99.90;;;;;;6370593;22;20010;-81
2022/10/29 02:51:12;;;;;;;60.90;9.70;;;12.10;99.90;;;;;;6370872;22;20010;-80
2022/10/29 02:53:37;;;;;;;38.38;8.55;;;12.10;99.90;;;;;;6370452;22;20085;-80
2022/10/29 02:56:04;;;;;;;35.45;8.77;;;12.10;99.90;;;;;;6370896;22;20011;-80
2022/10/29 02:58:29;;;;;;;34.63;9.20;;;12.00;99.90;;;;;;6342762;22;20029;-81
2022/10/29 03:00:55;;;;;;;55.08;10.18;;;12.00;99.90;;;;;;6370887;22;20019;-80
2022/10/29 03:03:21;;;;;;;42.63;9.40;;;12.10;99.90;;;;;;6370808;22;20018;-80
2022/10/29 03:05:46;;;;;;;80.88;10.15;;;12.00;99.90;;;;;;6342650;22;20094;-80
2022/10/29 03:08:12;;;;;;;41.28;9.77;;;12.00;99.90;;;;;;6342751;22;20059;-80
2022/10/29 03:10:38;;;;;;;108.63;11.63;;;12.00;99.90;;;;;;6370613;22;20111;-80
2022/10/29 03:13:03;;;;;;;125.50;12.35;;;12.00;99.90;;;;;;6370860;22;20011;-81
2022/10/29 03:15:29;;;;;;;67.00;9.85;;;12.00;99.90;;;;;;6370496;22;20026;-80
2022/10/29 03:17:54;;;;;;;155.80;12.30;;;12.00;99.90;;;;;;6372575;22;20435;-80
2022/10/29 03:20:20;;;;;;;52.90;9.48;;;11.90;99.90;;;;;;6372815;22;20018;-80
2022/10/29 03:22:46;;;;;;;86.53;10.73;;;11.90;99.90;;;;;;6372723;22;20406;-80
2022/10/29 03:25:11;;;;;;;39.90;8.65;;;11.90;99.90;;;;;;6344552;22;20093;-80
2022/10/29 03:27:41;;;;;;;56.95;9.80;;;12.00;99.90;;;;;;6344457;22;20093;-80
2022/10/29 03:30:09;;;;;;;50.90;8.88;;;11.90;99.90;;;;;;6344385;22;20085;-80
2022/10/29 03:32:38;;;;;;;53.60;8.77;;;11.90;99.90;;;;;;6344395;22;20505;-81
2022/10/29 03:35:04;;;;;;;29.58;8.88;;;12.00;99.90;;;;;;6344462;22;20029;-81
2022/10/29 03:37:29;;;;;;;28.35;9.07;;;12.00;99.90;;;;;;6344382;22;20014;-80
2022/10/29 03:39:55;;;;;;;66.88;9.90;;;11.90;99.90;;;;;;6344406;22;20010;-80
2022/10/29 03:42:20;;;;;;;112.95;12.15;;;11.90;99.90;;;;;;6344701;22;20060;-80
2022/10/29 03:44:46;;;;;;;39.33;9.60;;;11.90;99.90;;;;;;6372659;22;20018;-80
2022/10/29 03:47:12;;;;;;;53.10;8.65;;;11.90;99.90;;;;;;6344233;22;20063;-80
2022/10/29 03:49:37;;;;;;;65.50;10.40;;;11.90;99.90;;;;;;6372133;22;20070;-80
2022/10/29 03:52:03;;;;;;;56.20;9.60;;;11.90;99.90;;;;;;6372300;22;20018;-80
2022/10/29 03:54:28;;;;;;;24.45;8.60;;;11.90;99.90;;;;;;6372545;22;20074;-80
2022/10/29 03:56:54;;;;;;;38.15;9.48;;;11.90;99.90;;;;;;6344183;22;20071;-80
2022/10/29 03:59:20;;;;;;;38.15;9.23;;;12.00;99.90;;;;;;6372358;22;20049;-80
2022/10/29 04:01:45;;;;;;;24.20;8.70;;;11.90;99.90;;;;;;6372458;22;20086;-80
2022/10/29 04:04:11;;;;;;;25.25;8.55;;;11.90;99.90;;;;;;6372251;22;20326;-80
2022/10/29 04:06:37;;;;;;;36.85;9.82;;;11.90;99.90;;;;;;6344058;22;20089;-80
2022/10/29 04:09:02;;;;;;;24.13;8.88;;;11.90;99.90;;;;;;6372360;22;20025;-80
2022/10/29 04:11:28;;;;;;;25.70;9.05;;;11.90;99.90;;;;;;6372378;22;20303;-81
2022/10/29 04:13:53;;;;;;;76.68;10.88;;;11.90;99.90;;;;;;6372302;22;20036;-80
2022/10/29 04:16:19;;;;;;;66.07;10.32;;;11.90;99.90;;;;;;6372291;22;20022;-80
2022/10/29 04:18:49;;;;;;;46.05;11.05;;;12.00;99.90;;;;;;6371771;22;20010;-80
2022/10/29 04:21:15;;;;;;;40.42;9.02;;;11.90;99.90;;;;;;6372302;22;20025;-80
2022/10/29 04:23:41;;;;;;;53.45;9.30;;;11.90;99.90;;;;;;6372108;22;20136;-80
2022/10/29 04:26:07;;;;;;;22.33;8.88;;;11.90;99.90;;;;;;6372160;22;20044;-80
2022/10/29 04:28:32;;;;;;;60.70;10.57;;;11.90;99.90;;;;;;6371359;22;20389;-80
2022/10/29 04:31:03;;;;;;;27.13;8.95;;;11.90;99.90;;;;;;6343823;22;20010;-80
2022/10/29 04:33:29;;;;;;;18.90;8.77;;;11.90;99.90;;;;;;6371856;22;20018;-80
2022/10/29 04:35:54;;;;;;;35.92;9.45;;;11.90;99.90;;;;;;6372040;22;20017;-80
2022/10/29 04:38:20;;;;;;;44.03;9.68;;;12.00;99.90;;;;;;6371659;22;20014;-80
2022/10/29 04:40:46;;;;;;;54.95;9.90;;;11.90;99.90;;;;;;6371651;22;20077;-80
2022/10/29 04:43:11;;;;;;;26.65;9.10;;;11.90;99.90;;;;;;6371840;22;20022;-80
2022/10/29 04:45:37;;;;;;;78.28;11.23;;;11.90;99.90;;;;;;6372008;22;20342;-80
2022/10/29 04:48:04;;;;;;;28.40;9.35;;;11.90;99.90;;;;;;6343724;22;20394;-80
2022/10/29 04:50:31;;;;;;;20.63;7.93;;;11.80;99.90;;;;;;6371913;22;20085;-80
2022/10/29 04:53:02;;;;;;;61.20;9.98;;;11.90;99.90;;;;;;6343414;22;20061;-80
2022/10/29 04:55:28;;;;;;;131.38;13.05;;;11.80;99.90;;;;;;6344477;22;20021;-80
2022/10/29 04:57:54;;;;;;;46.30;10.45;;;11.80;99.90;;;;;;6343663;22;20021;-80
2022/10/29 05:00:21;;;;;;;43.20;9.40;;;11.90;99.90;;;;;;6371782;22;20025;-80
2022/10/29 05:02:48;;;;;;;99.65;11.15;;;11.80;99.90;;;;;;6371248;22;20499;-80
2022/10/29 05:05:15;;;;;;;37.22;8.93;;;11.80;99.90;;;;;;6343542;22;20485;-80
2022/10/29 05:07:40;;;;;;;36.15;8.68;;;11.80;99.90;;;;;;6343517;22;20046;-81
2022/10/29 05:10:06;;;;;;;18.48;8.20;;;11.80;99.90;;;;;;6343558;22;20017;-80
2022/10/29 05:12:32;;;;;;;43.72;8.60;;;11.80;99.90;;;;;;6371661;22;20434;-80
2022/10/29 05:14:57;;;;;;;126.88;11.95;;;11.80;99.90;;;;;;6371637;22;20014;-80
2022/10/29 05:17:23;;;;;;;32.80;8.77;;;11.70;99.90;;;;;;6371717;22;20135;-80
2022/10/29 05:19:48;;;;;;;22.27;8.13;;;11.70;99.90;;;;;;6371665;22;20326;-80
2022/10/29 05:22:14;;;;;;;31.20;7.22;;;11.70;99.90;;;;;;6371246;22;20015;-80
2022/10/29 05:24:40;;;;;;;36.55;8.40;;;11.70;99.90;;;;;;6371617;22;20083;-80
2022/10/29 05:27:06;;;;;;;71.03;9.32;;;11.70;99.90;;;;;;6371239;22;20334;-80
2022/10/29 05:29:31;;;;;;;161.43;12.73;;;11.70;99.90;;;;;;6371492;22;20042;-80
2022/10/29 05:31:57;;;;;;;138.20;10.30;;;11.70;99.90;;;;;;6343459;22;20041;-80
2022/10/29 05:34:23;;;;;;;104.63;9.43;;;11.60;99.90;;;;;;6343388;22;20024;-80
2022/10/29 05:36:48;;;;;;;98.50;10.23;;;11.60;99.90;;;;;;6343375;22;20052;-80
2022/10/29 05:39:14;;;;;;;73.43;9.90;;;11.60;99.90;;;;;;6371226;22;20014;-80
2022/10/29 05:41:40;;;;;;;60.42;9.55;;;11.70;99.90;;;;;;6342992;22;20022;-80
2022/10/29 05:44:05;;;;;;;103.65;10.65;;;11.60;99.90;;;;;;6370941;22;20021;-80
2022/10/29 05:46:31;;;;;;;37.38;8.20;;;11.60;99.90;;;;;;6371391;22;20006;-80
2022/10/29 05:48:57;;;;;;;85.63;10.50;;;11.70;99.90;;;;;;6370972;22;20338;-80
2022/10/29 05:51:23;;;;;;;29.35;7.75;;;11.70;99.90;;;;;;6371175;22;20059;-80
2022/10/29 05:53:48;;;;;;;40.85;8.23;;;11.70;99.90;;;;;;6343160;22;20018;-80
2022/10/29 05:56:14;;;;;;;31.45;8.32;;;11.70;99.90;;;;;;6343128;22;20470;-80
2022/10/29 05:58:40;;;;;;;39.25;7.43;;;11.70;99.90;;;;;;6343141;22;20358;-80
2022/10/29 06:01:07;;;;;;;36.72;8.73;;;11.80;99.90;;;;;;6370904;22;20018;-80
2022/10/29 06:03:33;;;;;;;22.05;8.00;;;11.70;99.90;;;;;;6343078;22;20139;-80
2022/10/29 06:05:59;;;;;;;53.53;8.63;;;11.80;99.90;;;;;;6343234;22;20042;-80
2022/10/29 06:08:24;;;;;;;33.63;7.63;;;11.80;99.90;;;;;;6343124;22;20354;-80
2022/10/29 06:10:50;;;;;;;20.63;6.72;;;11.90;99.90;;;;;;6370786;22;20014;-80
2022/10/29 06:13:18;;;;;;;15.95;6.97;;;11.80;99.90;;;;;;6343071;22;20025;-80
2022/10/29 06:15:45;;;;;;;16.05;6.95;;;11.90;99.90;;;;;;6370731;22;20503;-80
2022/10/29 06:18:11;;;;;;;32.72;10.45;;;11.80;99.90;;;;;;6342976;22;20018;-80
2022/10/29 06:20:37;;;;;;;28.42;9.35;;;11.90;99.90;;;;;;6370724;22;20334;-80
2022/10/29 06:23:03;;;;;;;31.52;7.22;;;11.90;99.90;;;;;;6370692;22;20017;-80
2022/10/29 06:25:29;;;;;;;72.00;8.63;;;11.90;99.90;;;;;;6371085;22;20089;-80
2022/10/29 06:27:59;;;;;;;48.60;9.80;;;11.90;99.90;;;;;;6342944;22;20049;-80
2022/10/29 06:30:25;;;;;;;75.07;8.85;;;11.90;99.90;;;;;;6342761;22;20017;-80
2022/10/29 06:32:51;;;;;;;64.22;8.27;;;11.90;99.90;;;;;;6370809;22;20057;-80
2022/10/29 06:35:16;;;;;;;14.98;7.18;;;11.90;99.90;;;;;;6370360;22;20002;-80
2022/10/29 06:37:42;;;;;;;84.00;9.32;;;11.90;99.90;;;;;;6370024;22;20053;-82
2022/10/29 06:40:08;;;;;;;63.67;8.82;;;11.90;99.90;;;;;;6342843;22;20140;-81
2022/10/29 06:42:34;;;;;;;41.83;9.07;;;11.90;99.90;;;;;;6342701;22;20018;-80
2022/10/29 06:44:59;;;;;;;75.50;12.32;;;12.00;99.90;;;;;;6370905;22;20505;-80
2022/10/29 06:47:25;;;;;;;45.38;9.55;;;12.00;99.90;;;;;;6370852;22;20014;-81
2022/10/29 06:49:50;;;;;;;40.55;10.40;;;12.10;99.90;;;;;;6370771;22;20435;-80
2022/10/29 06:52:16;;;;;;;83.95;11.18;;;12.00;99.90;;;;;;6371781;22;20021;-80
2022/10/29 06:54:42;;;;;;;109.57;9.73;;;12.10;99.90;;;;;;6372996;22;20010;-80
2022/10/29 06:57:07;;;;;;;48.70;8.13;;;12.10;99.90;;;;;;6372878;22;20014;-80
2022/10/29 06:59:33;;;;;;;39.53;7.68;;;12.00;99.90;;;;;;6371840;22;20360;-91
2022/10/29 07:01:58;;;;;;;109.60;10.45;;;12.10;99.90;;;;;;6344219;22;20044;-89
2022/10/29 07:04:24;;;;;;;125.30;10.48;;;12.00;99.90;;;;;;6372307;22;20054;-88
2022/10/29 07:06:50;;;;;;;81.50;8.18;;;12.00;99.90;;;;;;6372285;22;20097;-85
2022/10/29 07:09:15;;;;;;;73.15;7.45;;;12.20;99.90;;;;;;6344290;22;20015;-88
2022/10/29 07:11:41;;;;;;;128.35;10.35;;;12.10;99.90;;;;;;6344300;22;20038;-86
2022/10/29 07:14:08;;;;;;;45.03;7.78;;;12.00;99.90;;;;;;6344160;22;20021;-86
2022/10/29 07:16:35;;;;;;;36.20;7.40;;;12.00;99.90;;;;;;6372294;22;20022;-85
2022/10/29 07:19:02;;;;;;;48.05;8.38;;;12.10;99.90;;;;;;6372616;22;20089;-86
2022/10/29 07:21:27;;;;;;;108.55;8.88;;;12.10;99.90;;;;;;6344735;22;20025;-87
2022/10/29 07:23:53;;;;;;;67.97;9.02;;;12.10;99.90;;;;;;6370547;22;20024;-89
2022/10/29 07:26:18;;;;;;;81.13;9.50;;;12.10;99.90;;;;;;6344154;22;20014;-87
2022/10/29 07:28:44;;;;;;;32.80;8.45;;;12.20;99.90;;;;;;6372465;22;20465;-85
2022/10/29 07:31:10;;;;;;;148.95;16.63;;;12.20;99.90;;;;;;6344136;22;20018;-86
2022/10/29 07:33:35;;;;;;;83.82;11.25;;;12.20;99.90;;;;;;6344475;22;20079;-85
2022/10/29 07:36:01;;;;;;;95.30;12.00;;;12.20;99.90;;;;;;6372323;22;20022;-84
2022/10/29 07:38:26;;;;;;;37.47;10.23;;;12.20;99.90;;;;;;6372448;22;20438;-85
2022/10/29 07:40:53;;;;;;;90.68;13.82;;;12.20;99.90;;;;;;6372154;22;20018;-84
2022/10/29 07:43:20;;;;;;;92.70;11.23;;;12.20;99.90;;;;;;6343866;22;20015;-87
2022/10/29 07:45:50;;;;;;;79.78;10.48;;;12.20;99.90;;;;;;6344183;22;20025;-86
2022/10/29 07:48:18;;;;;;;85.00;11.48;;;12.30;99.90;;;;;;6372434;22;20014;-86
2022/10/29 07:50:43;;;;;;;35.40;12.07;;;12.30;99.90;;;;;;6343949;22;20024;-85
2022/10/29 07:53:09;;;;;;;78.13;10.85;;;12.30;99.90;;;;;;6343699;22;20097;-85
2022/10/29 07:55:35;;;;;;;92.18;12.43;;;12.40;99.90;;;;;;6343987;22;20382;-86
2022/10/29 07:58:03;;;;;;;49.92;10.90;;;12.30;99.90;;;;;;6372084;22;20007;-79
2022/10/29 08:00:31;;;;;;;42.40;14.80;;;12.40;99.90;;;;;;6371700;22;20468;-79
2022/10/29 08:02:57;;;;;;;55.50;11.98;;;12.40;99.90;;;;;;6371213;22;20046;-79
2022/10/29 08:05:24;;;;;;;82.75;12.77;;;12.40;99.90;;;;;;6371658;22;20025;-79
2022/10/29 08:07:53;;;;;;;77.10;12.43;;;12.50;99.90;;;;;;6371657;22;20027;-79
2022/10/29 08:10:18;;;;;;;106.53;14.27;;;12.40;99.90;;;;;;6371701;22;20022;-79
2022/10/29 08:12:52;;;;;;;46.22;12.05;;;12.50;99.90;;;;;;6371998;22;20048;-81
2022/10/29 08:15:18;;;;;;;153.23;15.65;;;12.50;99.90;;;;;;6371992;22;20019;-79
2022/10/29 08:17:44;;;;;;;160.32;16.30;;;12.50;99.90;;;;;;6371926;22;20015;-78
2022/10/29 08:20:10;;;;;;;104.93;13.90;;;12.50;99.90;;;;;;6371879;22;20018;-78
2022/10/29 08:22:36;;;;;;;87.50;13.43;;;12.60;99.90;;;;;;6371344;22;20017;-80
2022/10/29 08:25:02;;;;;;;54.10;12.13;;;12.50;99.90;;;;;;6371961;22;20018;-79
2022/10/29 08:27:27;;;;;;;77.97;13.18;;;12.60;99.90;;;;;;6343529;22;20010;-78
2022/10/29 08:29:53;;;;;;;74.60;12.38;;;12.60;99.90;;;;;;6343562;22;20026;-79
2022/10/29 08:32:18;;;;;;;90.78;14.93;;;12.60;99.90;;;;;;6371747;22;20021;-79
2022/10/29 08:34:44;;;;;;;57.55;14.35;;;12.70;99.90;;;;;;6371783;22;20037;-79
2022/10/29 08:37:10;;;;;;;71.38;14.75;;;12.70;99.90;;;;;;6371634;22;20427;-79
2022/10/29 08:39:35;;;;;;;106.68;20.58;;;12.80;99.90;;;;;;6371775;22;20010;-79
2022/10/29 08:42:36;;;;;;;62.20;14.38;;;12.80;99.90;;;;;;6371349;22;20376;-80
2022/10/29 08:45:22;;;;;;;63.55;13.10;;;12.90;99.90;;;;;;6371711;22;20048;-79
2022/10/29 08:47:56;;;;;;;81.55;17.05;;;12.90;99.90;;;;;;6343472;22;20014;-79
2022/10/29 08:50:33;;;;;;;52.35;12.75;;;13.00;99.90;;;;;;6371655;22;20037;-80
2022/10/29 08:53:00;;;;;;;68.93;13.55;;;13.00;99.90;;;;;;6343177;22;20010;-80
2022/10/29 08:55:34;;;;;;;71.63;13.73;;;13.10;99.90;;;;;;6370755;22;20126;-79
2022/10/29 08:58:20;;;;;;;53.83;12.65;;;13.10;99.90;;;;;;6371429;22;20081;-79
2022/10/29 09:00:50;;;;;;;64.78;13.80;;;13.10;99.90;;;;;;6343471;22;20045;-79
2022/10/29 09:03:16;;;;;;;82.65;15.55;;;13.20;99.90;;;;;;6370929;22;20384;-79
2022/10/29 09:05:57;;;;;;;71.03;15.20;;;13.20;99.90;;;;;;6343016;22;20453;-79
2022/10/29 09:08:38;;;;;;;62.13;15.15;;;13.10;99.90;;;;;;6343207;22;20372;-79
2022/10/29 09:11:32;;;;;;;59.25;15.95;;;13.20;99.90;;;;;;6371486;22;20093;-79
2022/10/29 09:14:35;;;;;;;84.63;15.65;;;13.30;99.90;;;;;;6370837;22;20334;-79
2022/10/29 09:17:18;;;;;;;66.85;19.67;;;13.30;99.90;;;;;;6371436;22;20029;-79
2022/10/29 09:20:23;;;;;;;85.57;20.80;;;13.20;99.90;;;;;;6343178;22;20015;-79
2022/10/29 09:22:54;;;;;;;69.60;17.48;;;13.30;99.90;;;;;;6341940;22;20098;-80
2022/10/29 09:25:29;;;;;;;86.72;19.23;;;13.40;99.90;;;;;;6371446;22;20016;-80
2022/10/29 09:28:28;;;;;;;82.43;19.90;;;13.40;99.90;;;;;;6342886;22;20013;-79
2022/10/29 09:31:02;;;;;;;74.43;22.67;;;13.40;99.90;;;;;;6342938;22;20333;-79
2022/10/29 09:33:28;;;;;;;70.70;23.13;;;13.40;99.90;;;;;;6371162;22;20042;-79
2022/10/29 09:35:57;;;;;;;75.53;23.00;;;13.40;99.90;;;;;;6342984;22;20018;-80
2022/10/29 09:38:29;;;;;;;75.85;21.70;;;13.40;99.90;;;;;;6371205;22;20022;-80
2022/10/29 09:41:00;;;;;;;73.75;20.98;;;13.50;99.90;;;;;;6371219;22;20077;-80
2022/10/29 09:43:45;;;;;;;72.90;21.25;;;13.40;99.90;;;;;;6370566;22;20514;-79
2022/10/29 09:46:27;;;;;;;76.38;23.17;;;13.40;99.90;;;;;;6371070;22;20022;-80
2022/10/29 09:49:09;;;;;;;77.20;23.40;;;13.50;99.90;;;;;;6342668;22;20442;-79
2022/10/29 09:52:05;;;;;;;83.10;22.05;;;13.60;99.90;;;;;;6370460;22;20010;-79
2022/10/29 09:54:32;;;;;;;65.50;22.45;;;13.60;99.90;;;;;;6298107;22;20029;-79
2022/10/29 09:57:00;;;;;;;77.55;23.02;;;13.60;99.90;;;;;;6369766;22;20013;-80
2022/10/29 09:59:37;;;;;;;87.18;26.02;;;13.60;99.90;;;;;;6369697;22;20057;-79
2022/10/29 10:02:21;;;;;;;85.88;22.42;;;13.70;99.90;;;;;;6341613;22;20018;-79
2022/10/29 10:04:50;;;;;;;83.07;25.58;;;13.70;99.90;;;;;;6341477;22;20018;-80
2022/10/29 10:07:18;;;;;;;79.82;26.65;;;13.70;99.90;;;;;;6369744;22;20015;-80
2022/10/29 10:09:51;;;;;;;86.30;26.27;;;13.80;99.90;;;;;;6341319;22;20022;-79
2022/10/29 10:12:18;;;;;;;90.80;28.13;;;13.80;99.90;;;;;;6369610;22;20010;-80
2022/10/29 10:14:46;;;;;;;72.38;22.52;;;13.90;99.90;;;;;;6341403;22;20050;-80
2022/10/29 10:17:11;;;;;;;71.85;23.63;;;14.00;99.90;;;;;;6369642;22;20014;-79
2022/10/29 10:19:43;;;;;;;83.40;23.83;;;13.90;99.90;;;;;;6369296;22;20503;-79
2022/10/29 10:22:18;;;;;;;83.30;25.48;;;14.00;99.90;;;;;;6369150;22;20022;-79
2022/10/29 10:24:43;;;;;;;87.13;28.13;;;14.10;99.90;;;;;;6341443;22;20019;-79
2022/10/29 10:27:29;;;;;;;77.88;25.13;;;14.10;99.90;;;;;;6368513;22;20018;-79
2022/10/29 10:30:03;;;;;;;87.15;25.95;;;14.20;99.90;;;;;;6369707;22;20014;-80
2022/10/29 10:32:29;;;;;;;80.68;26.13;;;14.20;99.90;;;;;;6369052;22;20343;-80
2022/10/29 10:34:55;;;;;;;96.97;29.10;;;14.40;99.90;;;;;;6369160;22;20438;-81
2022/10/29 10:37:21;;;;;;;87.78;28.50;;;14.40;99.90;;;;;;6368920;22;20060;-80
2022/10/29 10:40:00;;;;;;;77.97;26.13;;;14.50;99.90;;;;;;6369376;22;20017;-80
2022/10/29 10:42:29;;;;;;;82.75;26.80;;;14.60;99.90;;;;;;6369201;22;20098;-81
2022/10/29 10:45:00;;;;;;;85.07;28.08;;;14.70;99.90;;;;;;6369333;22;20021;-81
2022/10/29 10:47:33;;;;;;;80.93;26.58;;;14.70;99.90;;;;;;6369309;22;20063;-80
2022/10/29 10:50:19;;;;;;;66.45;26.63;;;14.80;99.90;;;;;;6369312;22;20360;-80
2022/10/29 10:52:45;;;;;;;69.85;26.38;;;14.80;99.90;;;;;;6293866;22;1082788;-80
2022/10/29 10:55:24;;;;;;;67.72;25.98;;;14.80;99.90;;;;;;6369966;22;20037;-80
2022/10/29 10:58:13;;;;;;;63.35;25.83;;;14.80;99.90;;;;;;6368539;22;20017;-80
2022/10/29 11:01:02;;;;;;;69.32;26.88;;;14.70;99.90;;;;;;6368778;22;20014;-80
2022/10/29 11:03:53;;;;;;;56.38;24.85;;;14.70;99.90;;;;;;6369850;22;20058;-80
2022/10/29 11:06:27;;;;;;;62.88;23.52;;;14.80;99.90;;;;;;6369234;22;20067;-80
2022/10/29 11:09:14;;;;;;;63.15;25.27;;;14.80;99.90;;;;;;6370497;22;20022;-80
2022/10/29 11:11:49;;;;;;;60.30;23.30;;;14.80;99.90;;;;;;6342219;22;20042;-82
2022/10/29 11:14:25;;;;;;;58.47;25.48;;;14.90;99.90;;;;;;6370091;22;20025;-81
2022/10/29 11:16:55;;;;;;;63.95;24.13;;;14.90;99.90;;;;;;6370777;22;20025;-81
2022/10/29 11:19:24;;;;;;;54.00;23.10;;;15.00;99.90;;;;;;6370737;22;20017;-80
2022/10/29 11:21:59;;;;;;;54.15;23.35;;;15.00;99.90;;;;;;6370398;22;20018;-80
2022/10/29 11:24:44;;;;;;;51.47;23.25;;;15.00;99.90;;;;;;6370597;22;20063;-80
2022/10/29 11:27:46;;;;;;;58.10;24.92;;;15.00;99.90;;;;;;6370447;22;20018;-81
2022/10/29 11:30:17;;;;;;;56.92;25.60;;;15.00;99.90;;;;;;6342502;22;20022;-80
2022/10/29 11:32:58;;;;;;;50.85;25.50;;;15.20;99.90;;;;;;6370667;22;20021;-80
2022/10/29 11:35:39;;;;;;;54.20;24.40;;;15.20;99.90;;;;;;6342473;22;20097;-80
2022/10/29 11:38:32;;;;;;;58.72;24.60;;;15.30;99.90;;;;;;6371628;22;20018;-80
2022/10/29 11:41:03;;;;;;;49.80;24.33;;;15.30;99.90;;;;;;6344405;22;20086;-81
2022/10/29 11:43:30;;;;;;;46.13;21.42;;;15.40;99.90;;;;;;6372373;22;20268;-80
2022/10/29 11:46:16;;;;;;;48.17;22.52;;;15.20;99.90;;;;;;6344051;22;20041;-80
2022/10/29 11:49:10;;;;;;;44.88;21.48;;;15.30;99.90;;;;;;6344151;22;20022;-80
2022/10/29 11:51:55;;;;;;;41.42;21.75;;;15.30;99.90;;;;;;6343905;22;20441;-81
2022/10/29 11:54:48;;;;;;;47.78;22.08;;;15.50;99.90;;;;;;6372459;22;20093;-81
2022/10/29 11:57:33;;;;;;;37.90;19.45;;;15.60;99.90;;;;;;6372354;22;20017;-81
2022/10/29 12:00:19;;;;;;;46.45;20.30;;;15.60;99.90;;;;;;6371918;22;20346;-80
2022/10/29 12:02:51;;;;;;;41.92;19.80;;;15.60;99.90;;;;;;6372278;22;20137;-80
2022/10/29 12:05:25;;;;;;;45.83;20.70;;;15.80;99.90;;;;;;6372236;22;20014;-80
2022/10/29 12:08:21;;;;;;;41.58;19.00;;;15.70;99.90;;;;;;6371955;22;20021;-80
2022/10/29 12:10:49;;;;;;;39.03;19.88;;;15.80;99.90;;;;;;6372146;22;20019;-80
2022/10/29 12:13:54;;;;;;;41.95;19.35;;;16.00;99.90;;;;;;6371780;22;20446;-80
2022/10/29 12:16:39;;;;;;;43.28;17.73;;;16.00;99.90;;;;;;6372143;22;20014;-80
2022/10/29 12:19:36;;;;;;;36.05;18.50;;;16.20;99.90;;;;;;6343767;22;20019;-81
2022/10/29 12:22:16;;;;;;;37.78;18.30;;;16.30;99.90;;;;;;6372090;22;20014;-81
2022/10/29 12:25:03;;;;;;;33.70;16.85;;;16.40;99.90;;;;;;6372021;22;20057;-81
2022/10/29 12:27:50;;;;;;;33.85;15.43;;;16.30;99.90;;;;;;6372077;22;20033;-81
2022/10/29 12:30:17;;;;;;;37.83;16.00;;;16.30;99.90;;;;;;6371673;22;20022;-80
2022/10/29 12:33:04;;;;;;;33.30;14.70;;;16.40;99.90;;;;;;6343700;22;20014;-81
2022/10/29 12:35:42;;;;;;;32.95;16.33;;;16.40;99.90;;;;;;6371601;22;20025;-81
2022/10/29 12:38:33;;;;;;;28.50;15.70;;;16.50;99.90;;;;;;6371676;22;20030;-81
2022/10/29 12:41:13;;;;;;;28.90;15.00;;;16.60;99.90;;;;;;6372263;22;20018;-80
2022/10/29 12:43:40;;;;;;;38.88;15.50;;;16.80;99.90;;;;;;6371771;22;20085;-80
2022/10/29 12:46:44;;;;;;;37.10;14.73;;;16.90;99.90;;;;;;6371450;22;20018;-80
2022/10/29 12:49:17;;;;;;;;;;;17.20;99.90;;;;;;6371752;22;20156;-83
2022/10/29 12:51:52;;;;;;;28.98;13.80;;;17.30;99.90;;;;;;6371496;22;20001;-79